createdAt,value
2024-01-27T00:00:34.651Z,28.95
2024-01-27T00:04:21.715Z,32.13
2024-01-27T00:08:07.693Z,28.26
2024-01-27T00:11:54.659Z,32.65
2024-01-27T00:15:43.722Z,22.32
2024-01-27T00:19:30.666Z,25.21
2024-01-27T00:23:16.701Z,36.45
2024-01-27T00:27:03.761Z,23.90
2024-01-27T00:30:53.653Z,27.67
2024-01-27T00:34:40.692Z,22.79
2024-01-27T00:38:27.762Z,23.10
2024-01-27T00:42:14.747Z,25.05
2024-01-27T00:46:03.711Z,30.53
2024-01-27T00:49:50.871Z,25.05
2024-01-27T00:53:36.638Z,25.88
2024-01-27T00:57:23.803Z,20.27
2024-01-27T01:01:12.838Z,21.25
2024-01-27T01:04:59.730Z,19.76
2024-01-27T01:08:48.762Z,19.56
2024-01-27T01:12:35.805Z,18.33
2024-01-27T01:16:24.648Z,18.93
2024-01-27T01:20:12.712Z,21.88
2024-01-27T01:23:58.708Z,25.66
2024-01-27T01:27:45.710Z,20.33
2024-01-27T01:31:34.645Z,19.45
2024-01-27T01:35:23.732Z,19.53
2024-01-27T01:39:10.735Z,20.92
2024-01-27T01:42:57.672Z,18.79
2024-01-27T01:46:46.662Z,20.95
2024-01-27T01:50:34.669Z,27.62
2024-01-27T01:54:23.945Z,28.88
2024-01-27T01:58:10.732Z,23.41
2024-01-27T02:01:59.755Z,19.21
2024-01-27T02:05:48.793Z,19.21
2024-01-27T02:09:34.757Z,21.76
2024-01-27T02:13:35.672Z,18.04
2024-01-27T02:17:24.764Z,20.56
2024-01-27T02:21:12.568Z,22.74
2024-01-27T02:25:02.726Z,19.82
2024-01-27T02:28:50.712Z,19.26
2024-01-27T02:32:36.779Z,24.84
2024-01-27T02:36:23.813Z,25.07
2024-01-27T02:40:13.671Z,17.34
2024-01-27T02:44:00.707Z,20.55
2024-01-27T02:47:47.895Z,20.49
2024-01-27T02:51:36.685Z,26.06
2024-01-27T02:55:25.692Z,21.83
2024-01-27T02:59:12.681Z,21.04
2024-01-27T03:02:58.674Z,21.53
2024-01-27T03:06:45.730Z,24.17
2024-01-27T03:10:34.728Z,21.41
2024-01-27T03:14:22.649Z,22.02
2024-01-27T03:18:08.806Z,29.48
2024-01-27T03:21:55.687Z,30.10
2024-01-27T03:25:44.791Z,25.64
2024-01-27T03:29:31.718Z,21.36
2024-01-27T03:33:20.949Z,24.94
2024-01-27T03:37:07.661Z,25.94
2024-01-27T03:40:56.755Z,23.49
2024-01-27T03:44:43.740Z,31.90
2024-01-27T03:48:29.846Z,44.59
2024-01-27T03:52:16.744Z,37.51
2024-01-27T03:56:06.671Z,29.18
2024-01-27T03:59:56.804Z,27.53
2024-01-27T04:03:43.708Z,37.73
2024-01-27T04:07:30.690Z,32.44
2024-01-27T04:11:19.700Z,37.48
2024-01-27T04:15:07.793Z,33.05
2024-01-27T04:18:56.777Z,40.14
2024-01-27T04:22:43.732Z,44.34
2024-01-27T04:26:32.731Z,26.91
2024-01-27T04:30:21.784Z,28.29
2024-01-27T04:34:08.830Z,27.60
2024-01-27T04:37:55.746Z,23.80
2024-01-27T04:41:44.668Z,22.45
2024-01-27T04:45:32.742Z,24.04
2024-01-27T04:49:19.853Z,24.55
2024-01-27T04:53:06.679Z,22.13
2024-01-27T04:56:55.821Z,29.66
2024-01-27T05:00:44.872Z,23.92
2024-01-27T05:04:34.697Z,23.83
2024-01-27T05:08:22.743Z,29.76
2024-01-27T05:12:11.803Z,25.86
2024-01-27T05:15:58.799Z,23.81
2024-01-27T05:19:44.768Z,25.05
2024-01-27T05:23:31.725Z,23.98
2024-01-27T05:27:21.774Z,22.52
2024-01-27T05:31:08.724Z,23.41
2024-01-27T05:34:54.878Z,24.01
2024-01-27T05:38:41.755Z,24.80
2024-01-27T05:42:30.734Z,27.54
2024-01-27T05:46:17.698Z,24.41
2024-01-27T05:50:03.744Z,27.45
2024-01-27T05:53:52.797Z,28.57
2024-01-27T05:57:41.847Z,26.74
2024-01-27T06:01:28.816Z,24.52
2024-01-27T06:05:16.775Z,26.25
2024-01-27T06:09:03.739Z,24.92
2024-01-27T06:12:54.863Z,24.15
2024-01-27T06:16:43.724Z,24.74
2024-01-27T06:20:30.812Z,25.27
2024-01-27T06:24:17.820Z,24.18
2024-01-27T06:28:06.714Z,27.32
2024-01-27T06:31:53.752Z,24.72
2024-01-27T06:35:39.685Z,34.83
2024-01-27T06:39:26.777Z,26.13
2024-01-27T06:43:15.714Z,28.30
2024-01-27T06:47:02.740Z,30.81
2024-01-27T06:50:48.839Z,29.57
2024-01-27T06:54:35.860Z,29.79
2024-01-27T06:58:24.747Z,28.52
2024-01-27T07:02:11.779Z,26.76
2024-01-27T07:05:58.840Z,34.98
2024-01-27T07:09:45.767Z,29.26
2024-01-27T07:13:37.714Z,30.17
2024-01-27T07:17:24.853Z,33.16
2024-01-27T07:21:10.834Z,38.78
2024-01-27T07:24:59.787Z,88.85
2024-01-27T07:28:48.799Z,84.07
2024-01-27T07:32:38.845Z,55.89
2024-01-27T07:36:27.933Z,79.51
2024-01-27T07:40:16.787Z,61.87
2024-01-27T07:44:05.877Z,54.74
2024-01-27T07:47:52.873Z,83.24
2024-01-27T07:51:38.818Z,76.27
2024-01-27T07:55:27.731Z,60.06
2024-01-27T07:59:21.747Z,56.46
2024-01-27T08:03:08.827Z,62.80
2024-01-27T08:07:04.797Z,56.51
2024-01-27T08:10:51.768Z,42.44
2024-01-27T08:14:41.961Z,47.73
2024-01-27T08:18:30.056Z,35.27
2024-01-27T08:22:18.867Z,33.14
2024-01-27T08:26:06.802Z,33.53
2024-01-27T08:29:58.511Z,30.47
2024-01-27T08:33:54.340Z,31.76
2024-01-27T08:37:46.764Z,34.51
2024-01-27T08:41:33.739Z,39.55
2024-01-27T08:45:24.817Z,46.39
2024-01-27T08:50:38.793Z,40.25
2024-01-27T08:54:25.901Z,43.64
2024-01-27T08:58:13.846Z,43.58
2024-01-27T09:02:01.866Z,45.43
2024-01-27T09:05:52.850Z,41.72
2024-01-27T09:09:39.857Z,38.79
2024-01-27T09:13:26.857Z,49.20
2024-01-27T09:17:13.875Z,37.03
2024-01-27T09:21:02.826Z,44.84
2024-01-27T09:24:49.938Z,50.11
2024-01-27T09:28:35.803Z,46.23
2024-01-27T09:32:23.814Z,42.36
2024-01-27T09:36:12.883Z,52.02
2024-01-27T09:40:00.836Z,52.71
2024-01-27T09:43:48.805Z,49.71
2024-01-27T09:47:36.917Z,53.69
2024-01-27T09:51:27.915Z,52.16
2024-01-27T09:55:14.862Z,47.42
2024-01-27T09:59:03.778Z,47.08
2024-01-27T10:02:52.948Z,51.43
2024-01-27T10:06:43.067Z,44.86
2024-01-27T10:10:34.809Z,45.59
2024-01-27T10:14:26.814Z,53.08
2024-01-27T10:18:26.955Z,53.74
2024-01-27T10:22:20.792Z,69.46
2024-01-27T10:26:08.795Z,54.59
2024-01-27T10:29:55.929Z,59.22
2024-01-27T10:33:42.883Z,69.54
2024-01-27T10:37:31.894Z,65.32
2024-01-27T10:41:27.853Z,48.09
2024-01-27T10:45:17.998Z,46.29
2024-01-27T10:49:10.990Z,44.70
2024-01-27T10:53:13.286Z,47.34
2024-01-27T10:57:04.014Z,60.32
2024-01-27T11:01:01.327Z,51.39
2024-01-27T11:04:48.957Z,41.32
2024-01-27T11:08:47.241Z,42.76
2024-01-27T11:12:37.964Z,55.87
2024-01-27T11:16:35.868Z,54.64
2024-01-27T11:20:26.857Z,75.96
2024-01-27T11:24:15.992Z,64.50
2024-01-27T11:28:03.832Z,56.08
2024-01-27T11:31:49.913Z,45.54
2024-01-27T11:35:37.911Z,45.13
2024-01-27T11:39:41.946Z,77.64
2024-01-27T11:43:29.911Z,61.50
2024-01-27T11:47:16.827Z,142.39
2024-01-27T11:51:03.955Z,199.34
2024-01-27T11:54:52.934Z,102.18
2024-01-27T11:58:40.894Z,99.36
2024-01-27T12:02:27.870Z,63.75
2024-01-27T12:06:16.389Z,49.27
2024-01-27T12:10:05.896Z,42.45
2024-01-27T12:13:52.874Z,62.22
2024-01-27T12:17:39.846Z,76.86
2024-01-27T12:21:27.878Z,62.25
2024-01-27T12:25:28.101Z,106.75
2024-01-27T12:29:16.859Z,80.29
2024-01-27T12:33:05.039Z,72.49
2024-01-27T12:36:59.825Z,72.95
2024-01-27T12:40:49.971Z,83.57
2024-01-27T12:44:42.907Z,92.57
2024-01-27T12:48:32.573Z,65.03
2024-01-27T12:52:20.886Z,106.39
2024-01-27T12:56:09.906Z,158.63
2024-01-27T12:59:57.005Z,71.84
2024-01-27T13:03:45.863Z,44.52
2024-01-27T13:07:33.916Z,81.86
2024-01-27T13:11:22.913Z,81.18
2024-01-27T13:15:09.954Z,77.96
2024-01-27T13:18:56.888Z,71.14
2024-01-27T13:22:43.879Z,58.91
2024-01-27T13:26:32.836Z,58.40
2024-01-27T13:30:24.906Z,74.25
2024-01-27T13:34:13.015Z,61.69
2024-01-27T13:38:00.835Z,63.95
2024-01-27T13:41:49.823Z,78.26
2024-01-27T13:45:36.857Z,69.54
2024-01-27T13:49:23.012Z,87.83
2024-01-27T13:53:13.888Z,81.63
2024-01-27T13:57:02.900Z,91.63
2024-01-27T14:00:49.965Z,131.57
2024-01-27T14:04:36.913Z,120.70
2024-01-27T14:08:25.834Z,114.28
2024-01-27T14:12:14.908Z,120.25
2024-01-27T14:16:01.873Z,128.48
2024-01-27T14:19:48.022Z,147.55
2024-01-27T14:23:36.863Z,141.76
2024-01-27T14:27:34.060Z,132.93
2024-01-27T14:31:21.934Z,173.99
2024-01-27T14:35:08.947Z,149.51
2024-01-27T14:38:56.931Z,148.90
2024-01-27T14:42:47.999Z,177.25
2024-01-27T14:46:35.907Z,192.08
2024-01-27T14:50:22.923Z,104.08
2024-01-27T14:54:11.936Z,142.83
2024-01-27T14:58:00.865Z,154.03
2024-01-27T15:01:47.897Z,119.43
2024-01-27T15:05:33.920Z,134.43
2024-01-27T15:09:23.968Z,127.21
2024-01-27T15:13:12.937Z,118.99
2024-01-27T15:17:00.855Z,175.13
2024-01-27T15:20:47.898Z,189.41
2024-01-27T15:24:34.887Z,195.19
2024-01-27T15:28:24.856Z,178.05
2024-01-27T15:32:11.835Z,155.45
2024-01-27T15:35:58.968Z,173.57
2024-01-27T15:39:47.178Z,182.27
2024-01-27T15:43:38.894Z,195.74
2024-01-27T15:47:27.958Z,171.46
2024-01-27T15:51:15.929Z,175.30
2024-01-27T15:55:02.841Z,192.12
2024-01-27T15:58:51.915Z,173.98
2024-01-27T16:02:38.921Z,178.30
2024-01-27T16:06:25.926Z,141.38
2024-01-27T16:10:13.934Z,205.15
2024-01-27T16:14:05.895Z,192.02
2024-01-27T16:17:52.936Z,263.73
2024-01-27T16:21:38.947Z,315.45
2024-01-27T16:25:27.031Z,233.70
2024-01-27T16:29:15.885Z,173.08
2024-01-27T16:33:03.995Z,158.26
2024-01-27T16:36:49.938Z,217.06
2024-01-27T16:40:36.855Z,320.11
2024-01-27T16:44:25.890Z,403.25
2024-01-27T16:48:14.037Z,370.33
2024-01-27T16:51:59.902Z,235.16
2024-01-27T16:55:48.868Z,235.72
2024-01-27T16:59:37.889Z,212.30
2024-01-27T17:03:25.065Z,165.63
2024-01-27T17:07:11.844Z,169.76
2024-01-27T17:11:00.919Z,191.76
2024-01-27T17:14:50.901Z,209.19
2024-01-27T17:18:39.042Z,203.94
2024-01-27T17:22:24.883Z,197.14
2024-01-27T17:26:11.920Z,174.60
2024-01-27T17:30:00.928Z,170.59
2024-01-27T17:33:48.982Z,209.67
2024-01-27T17:37:34.880Z,114.96
2024-01-27T17:41:21.942Z,157.91
2024-01-27T17:45:10.968Z,126.08
2024-01-27T17:48:59.124Z,118.47
2024-01-27T17:52:46.894Z,112.50
2024-01-27T17:56:37.866Z,92.72
2024-01-27T18:00:30.985Z,99.50
2024-01-27T18:04:17.979Z,96.97
2024-01-27T18:08:03.889Z,95.36
2024-01-27T18:11:50.943Z,120.61
2024-01-27T18:15:39.983Z,74.70
2024-01-27T18:19:27.885Z,75.59
2024-01-27T18:23:13.959Z,83.74
2024-01-27T18:27:01.981Z,97.09
2024-01-27T18:30:51.916Z,86.37
2024-01-27T18:34:40.045Z,84.86
2024-01-27T18:38:25.934Z,77.24
2024-01-27T18:42:12.948Z,130.75
2024-01-27T18:46:04.936Z,126.25
2024-01-27T18:49:52.118Z,110.54
2024-01-27T18:53:40.947Z,99.52
2024-01-27T18:57:28.916Z,105.07
2024-01-27T19:01:19.956Z,81.63
2024-01-27T19:05:11.890Z,85.27
2024-01-27T19:08:58.967Z,82.57
2024-01-27T19:12:45.961Z,83.81
2024-01-27T19:16:34.893Z,84.75
2024-01-27T19:20:23.936Z,103.24
2024-01-27T19:24:09.966Z,110.34
2024-01-27T19:27:59.800Z,108.21
2024-01-27T19:31:53.521Z,108.20
2024-01-27T19:35:40.951Z,151.21
2024-01-27T19:39:31.250Z,114.04
2024-01-27T19:43:19.940Z,118.00
2024-01-27T19:47:15.899Z,134.56
2024-01-27T19:51:07.183Z,133.50
2024-01-27T19:54:53.980Z,118.42
2024-01-27T19:58:41.025Z,99.48
2024-01-27T20:02:32.924Z,102.93
2024-01-27T20:06:24.143Z,152.05
2024-01-27T20:10:10.900Z,112.10
2024-01-27T20:14:00.882Z,110.76
2024-01-27T20:17:51.088Z,101.31
2024-01-27T20:21:41.940Z,97.37
2024-01-27T20:25:28.945Z,112.36
2024-01-27T20:29:15.967Z,108.74
2024-01-27T20:33:06.160Z,116.24
2024-01-27T20:36:55.026Z,129.54
2024-01-27T20:40:41.880Z,125.32
2024-01-27T20:44:29.021Z,169.54
2024-01-27T20:48:23.747Z,180.01
2024-01-27T20:52:11.903Z,178.70
2024-01-27T20:55:58.993Z,220.46
2024-01-27T20:59:46.900Z,222.38
2024-01-27T21:03:36.029Z,125.47
2024-01-27T21:07:25.115Z,120.86
2024-01-27T21:11:17.025Z,145.18
2024-01-27T21:15:04.932Z,151.10
2024-01-27T21:18:54.011Z,147.68
2024-01-27T21:22:40.938Z,172.72
2024-01-27T21:26:27.961Z,249.51
2024-01-27T21:30:15.973Z,279.10
2024-01-27T21:34:04.999Z,264.95
2024-01-27T21:37:51.943Z,248.40
2024-01-27T21:41:37.940Z,216.57
2024-01-27T21:45:29.005Z,206.48
2024-01-27T21:49:19.020Z,165.13
2024-01-27T21:53:05.951Z,175.07
2024-01-27T21:56:51.992Z,186.25
2024-01-27T22:00:39.115Z,188.54
2024-01-27T22:04:27.997Z,204.10
2024-01-27T22:08:14.972Z,189.85
2024-01-27T22:12:01.974Z,188.50
2024-01-27T22:15:51.605Z,199.48
2024-01-27T22:19:43.143Z,146.10
2024-01-27T22:23:29.968Z,144.81
2024-01-27T22:27:15.972Z,135.49
2024-01-27T22:31:02.905Z,150.65
2024-01-27T22:34:53.028Z,155.99
2024-01-27T22:38:39.987Z,151.47
2024-01-27T22:42:25.934Z,148.74
2024-01-27T22:46:12.996Z,162.85
2024-01-27T22:50:02.002Z,134.75
2024-01-27T22:53:48.909Z,128.50
2024-01-27T22:57:34.966Z,125.30
2024-01-27T23:01:22.905Z,134.34
2024-01-27T23:05:11.904Z,125.41
2024-01-27T23:08:58.971Z,141.49
2024-01-27T23:12:44.924Z,193.68
2024-01-27T23:16:31.930Z,135.68
2024-01-27T23:20:23.945Z,143.07
2024-01-27T23:24:11.177Z,122.70
2024-01-27T23:27:57.991Z,144.83
2024-01-27T23:31:45.990Z,116.88
2024-01-27T23:35:34.888Z,117.36
2024-01-27T23:39:22.014Z,106.23
2024-01-27T23:43:07.991Z,105.23
2024-01-27T23:46:54.974Z,85.90
2024-01-27T23:50:44.068Z,92.83
2024-01-27T23:54:31.972Z,92.62
2024-01-27T23:58:18.938Z,84.02
